createdAt,value
2022-09-03T00:00:07.040Z,-62
2022-09-03T00:02:45.593Z,-63
2022-09-03T00:05:21.580Z,-62
2022-09-03T00:08:02.592Z,-64
2022-09-03T00:10:44.698Z,-65
2022-09-03T00:13:19.370Z,-63
2022-09-03T00:15:47.559Z,-62
2022-09-03T00:18:21.962Z,-63
2022-09-03T00:20:57.552Z,-64
2022-09-03T00:23:30.069Z,-63
2022-09-03T00:26:17.390Z,-62
2022-09-03T00:28:55.749Z,-63
2022-09-03T00:31:32.903Z,-63
2022-09-03T00:34:09.442Z,-63
2022-09-03T00:36:43.099Z,-63
2022-09-03T00:39:14.089Z,-63
2022-09-03T00:42:06.777Z,-64
2022-09-03T00:45:00.857Z,-63
2022-09-03T00:47:41.928Z,-63
2022-09-03T00:50:24.919Z,-62
2022-09-03T00:53:05.204Z,-64
2022-09-03T00:55:49.523Z,-62
2022-09-03T00:58:52.936Z,-63
2022-09-03T01:01:29.590Z,-63
2022-09-03T01:04:17.985Z,-62
2022-09-03T01:07:00.815Z,-62
2022-09-03T01:09:46.066Z,-63
2022-09-03T01:12:30.282Z,-62
2022-09-03T01:15:13.986Z,-63
2022-09-03T01:18:03.956Z,-64
2022-09-03T01:20:51.846Z,-62
2022-09-03T01:23:54.693Z,-63
2022-09-03T01:27:03.478Z,-65
2022-09-03T01:29:45.571Z,-63
2022-09-03T01:32:24.839Z,-63
2022-09-03T01:35:04.311Z,-62
2022-09-03T01:37:47.665Z,-63
2022-09-03T01:40:29.191Z,-63
2022-09-03T01:43:18.407Z,-63
2022-09-03T01:46:00.477Z,-63
2022-09-03T01:48:42.237Z,-63
2022-09-03T01:51:21.087Z,-62
2022-09-03T01:54:28.225Z,-63
2022-09-03T01:57:37.380Z,-64
2022-09-03T02:00:13.229Z,-62
2022-09-03T02:02:47.761Z,-63
2022-09-03T02:05:20.576Z,-64
2022-09-03T02:07:52.957Z,-63
2022-09-03T02:10:27.928Z,-63
2022-09-03T02:13:02.851Z,-62
2022-09-03T02:15:34.578Z,-64
2022-09-03T02:18:09.477Z,-63
2022-09-03T02:20:39.762Z,-63
2022-09-03T02:23:08.045Z,-63
2022-09-03T02:25:42.630Z,-63
2022-09-03T02:28:17.309Z,-63
2022-09-03T02:30:46.457Z,-63
2022-09-03T02:33:17.008Z,-63
2022-09-03T02:35:46.392Z,-63
2022-09-03T02:38:17.925Z,-63
2022-09-03T02:40:47.062Z,-63
2022-09-03T02:43:21.235Z,-62
2022-09-03T02:46:02.284Z,-63
2022-09-03T02:48:31.878Z,-63
2022-09-03T02:51:00.359Z,-64
2022-09-03T02:53:29.301Z,-63
2022-09-03T02:56:00.949Z,-63
2022-09-03T02:58:31.519Z,-64
2022-09-03T03:01:00.501Z,-63
2022-09-03T03:03:28.940Z,-65
2022-09-03T03:06:03.737Z,-63
2022-09-03T03:08:33.968Z,-64
2022-09-03T03:11:02.430Z,-63
2022-09-03T03:13:32.453Z,-64
2022-09-03T03:16:03.260Z,-62
2022-09-03T03:18:31.535Z,-63
2022-09-03T03:21:06.314Z,-62
2022-09-03T03:23:35.296Z,-63
2022-09-03T03:26:03.981Z,-63
2022-09-03T03:28:34.292Z,-62
2022-09-03T03:31:08.601Z,-64
2022-09-03T03:33:37.115Z,-63
2022-09-03T03:36:09.134Z,-63
2022-09-03T03:38:38.129Z,-62
2022-09-03T03:41:10.565Z,-64
2022-09-03T03:43:39.031Z,-64
2022-09-03T03:46:07.609Z,-63
2022-09-03T03:48:36.282Z,-62
2022-09-03T03:51:08.921Z,-63
2022-09-03T03:53:39.865Z,-62
2022-09-03T03:56:11.462Z,-64
2022-09-03T03:58:42.393Z,-63
2022-09-03T04:01:12.953Z,-63
2022-09-03T04:03:41.689Z,-62
2022-09-03T04:06:13.620Z,-62
2022-09-03T04:08:45.439Z,-62
2022-09-03T04:11:18.347Z,-62
2022-09-03T04:13:48.607Z,-62
2022-09-03T04:16:19.465Z,-63
2022-09-03T04:18:49.512Z,-62
2022-09-03T04:21:21.572Z,-62
2022-09-03T04:23:52.209Z,-63
2022-09-03T04:26:23.584Z,-63
2022-09-03T04:28:52.167Z,-62
2022-09-03T04:31:22.483Z,-63
2022-09-03T04:33:51.201Z,-63
2022-09-03T04:36:23.247Z,-62
2022-09-03T04:38:54.157Z,-63
2022-09-03T04:41:25.803Z,-62
2022-09-03T04:43:55.699Z,-62
2022-09-03T04:46:28.507Z,-62
2022-09-03T04:48:58.007Z,-61
2022-09-03T04:51:29.984Z,-62
2022-09-03T04:54:01.271Z,-63
2022-09-03T04:56:32.042Z,-63
2022-09-03T04:59:03.135Z,-63
2022-09-03T05:01:34.545Z,-62
2022-09-03T05:04:04.836Z,-63
2022-09-03T05:06:36.871Z,-64
2022-09-03T05:09:06.819Z,-60
2022-09-03T05:11:35.004Z,-59
2022-09-03T05:14:03.476Z,-59
2022-09-03T05:16:31.718Z,-59
2022-09-03T05:19:03.773Z,-59
2022-09-03T05:21:33.487Z,-62
2022-09-03T05:24:03.006Z,-60
2022-09-03T05:26:34.440Z,-60
2022-09-03T05:29:07.583Z,-60
2022-09-03T05:31:38.969Z,-59
2022-09-03T05:34:08.247Z,-59
2022-09-03T05:36:39.350Z,-60
2022-09-03T05:39:08.104Z,-59
2022-09-03T05:41:36.479Z,-59
2022-09-03T05:44:06.074Z,-60
2022-09-03T05:46:37.396Z,-59
2022-09-03T05:49:08.588Z,-59
2022-09-03T05:51:40.022Z,-59
2022-09-03T05:54:09.187Z,-60
2022-09-03T05:56:40.957Z,-59
2022-09-03T05:59:11.811Z,-59
2022-09-03T06:01:50.237Z,-60
2022-09-03T06:04:20.159Z,-59
2022-09-03T06:06:50.395Z,-60
2022-09-03T06:09:21.063Z,-59
2022-09-03T06:11:52.527Z,-58
2022-09-03T06:14:22.046Z,-60
2022-09-03T06:16:52.845Z,-61
2022-09-03T06:19:21.524Z,-59
2022-09-03T06:21:51.154Z,-60
2022-09-03T06:24:23.259Z,-61
2022-09-03T06:26:54.666Z,-60
2022-09-03T06:29:22.829Z,-60
2022-09-03T06:31:51.275Z,-60
2022-09-03T06:34:19.520Z,-61
2022-09-03T06:36:47.572Z,-59
2022-09-03T06:39:17.075Z,-61
2022-09-03T06:41:45.898Z,-60
2022-09-03T06:44:14.694Z,-60
2022-09-03T06:46:43.360Z,-60
2022-09-03T06:49:12.788Z,-60
2022-09-03T06:51:43.231Z,-59
2022-09-03T06:54:13.388Z,-60
2022-09-03T06:56:42.976Z,-59
2022-09-03T06:59:14.687Z,-60
2022-09-03T07:01:46.330Z,-59
2022-09-03T07:04:20.113Z,-59
2022-09-03T07:06:49.003Z,-59
2022-09-03T07:09:18.966Z,-60
2022-09-03T07:11:49.345Z,-59
2022-09-03T07:14:19.711Z,-60
2022-09-03T07:16:49.635Z,-60
2022-09-03T07:19:18.437Z,-60
2022-09-03T07:21:50.237Z,-59
2022-09-03T07:24:21.831Z,-59
2022-09-03T07:26:51.644Z,-60
2022-09-03T07:29:23.725Z,-60
2022-09-03T07:31:53.410Z,-60
2022-09-03T07:34:27.001Z,-60
2022-09-03T07:36:55.914Z,-60
2022-09-03T07:39:24.151Z,-60
2022-09-03T07:41:53.796Z,-59
2022-09-03T07:44:24.417Z,-58
2022-09-03T07:46:52.985Z,-59
2022-09-03T07:49:22.984Z,-58
2022-09-03T07:51:54.153Z,-59
2022-09-03T07:54:23.845Z,-59
2022-09-03T07:56:53.424Z,-60
2022-09-03T07:59:22.975Z,-61
2022-09-03T08:01:53.001Z,-60
2022-09-03T08:04:22.042Z,-59
2022-09-03T08:06:50.206Z,-59
2022-09-03T08:09:18.346Z,-59
2022-09-03T08:11:46.526Z,-59
2022-09-03T08:14:16.512Z,-59
2022-09-03T08:16:48.011Z,-59
2022-09-03T08:19:18.177Z,-59
2022-09-03T08:21:46.729Z,-59
2022-09-03T08:24:17.686Z,-59
2022-09-03T08:26:51.453Z,-59
2022-09-03T08:29:22.519Z,-59
2022-09-03T08:31:50.666Z,-59
2022-09-03T08:34:18.938Z,-59
2022-09-03T08:36:48.002Z,-61
2022-09-03T08:39:16.839Z,-60
2022-09-03T08:42:20.395Z,-58
2022-09-03T08:44:56.069Z,-59
2022-09-03T08:47:31.295Z,-59
2022-09-03T08:50:08.981Z,-58
2022-09-03T08:52:48.972Z,-60
2022-09-03T08:55:27.266Z,-60
2022-09-03T08:58:04.282Z,-59
2022-09-03T09:00:48.951Z,-59
2022-09-03T09:03:42.345Z,-59
2022-09-03T09:06:22.695Z,-60
2022-09-03T09:09:08.577Z,-59
2022-09-03T09:11:51.622Z,-59
2022-09-03T09:14:32.839Z,-59
2022-09-03T09:17:23.753Z,-58
2022-09-03T09:20:06.573Z,-58
2022-09-03T09:22:40.536Z,-59
2022-09-03T09:25:15.209Z,-59
2022-09-03T09:27:52.125Z,-60
2022-09-03T09:30:21.053Z,-58
2022-09-03T09:32:50.373Z,-59
2022-09-03T09:35:20.135Z,-60
2022-09-03T09:37:51.006Z,-59
2022-09-03T09:40:34.089Z,-60
2022-09-03T09:43:12.799Z,-62
2022-09-03T09:45:42.955Z,-60
2022-09-03T09:48:23.230Z,-59
2022-09-03T09:50:51.253Z,-59
2022-09-03T09:53:21.808Z,-60
2022-09-03T09:55:55.686Z,-60
2022-09-03T09:58:26.781Z,-61
2022-09-03T10:01:13.073Z,-59
2022-09-03T10:03:55.180Z,-60
2022-09-03T10:06:44.068Z,-60
2022-09-03T10:09:15.884Z,-59
2022-09-03T10:11:51.183Z,-60
2022-09-03T10:14:26.906Z,-59
2022-09-03T10:17:04.894Z,-59
2022-09-03T10:20:06.236Z,-60
2022-09-03T10:22:48.358Z,-60
2022-09-03T10:25:32.938Z,-60
2022-09-03T10:28:02.059Z,-60
2022-09-03T10:30:47.452Z,-61
2022-09-03T10:33:25.225Z,-59
2022-09-03T10:36:19.989Z,-59
2022-09-03T10:39:01.513Z,-60
2022-09-03T10:41:55.829Z,-59
2022-09-03T10:44:46.382Z,-59
2022-09-03T10:47:36.822Z,-60
2022-09-03T10:50:17.882Z,-60
2022-09-03T10:53:12.481Z,-60
2022-09-03T10:55:53.907Z,-60
2022-09-03T10:58:45.501Z,-59
2022-09-03T11:01:28.691Z,-60
2022-09-03T11:04:24.935Z,-60
2022-09-03T11:06:58.243Z,-60
2022-09-03T11:09:38.705Z,-60
2022-09-03T11:12:13.339Z,-61
2022-09-03T11:14:46.871Z,-60
2022-09-03T11:17:26.346Z,-60
2022-09-03T11:20:11.048Z,-60
2022-09-03T11:22:41.772Z,-60
2022-09-03T11:25:16.199Z,-60
2022-09-03T11:28:01.497Z,-60
2022-09-03T11:30:49.653Z,-61
2022-09-03T11:33:24.673Z,-60
2022-09-03T11:36:00.787Z,-60
2022-09-03T11:38:32.090Z,-60
2022-09-03T11:41:11.959Z,-60
2022-09-03T11:43:40.558Z,-60
2022-09-03T11:46:14.709Z,-60
2022-09-03T11:48:45.914Z,-60
2022-09-03T11:51:33.007Z,-60
2022-09-03T11:54:03.829Z,-61
2022-09-03T11:56:36.050Z,-60
2022-09-03T11:59:20.472Z,-59
2022-09-03T12:01:54.116Z,-60
2022-09-03T12:04:31.510Z,-61
2022-09-03T12:07:22.996Z,-60
2022-09-03T12:10:21.347Z,-59
2022-09-03T12:13:18.402Z,-59
2022-09-03T12:16:16.402Z,-59
2022-09-03T12:18:45.814Z,-60
2022-09-03T12:21:14.511Z,-61
2022-09-03T12:23:45.762Z,-59
2022-09-03T12:26:16.392Z,-59
2022-09-03T12:28:49.908Z,-60
2022-09-03T12:31:24.655Z,-59
2022-09-03T12:33:59.003Z,-60
2022-09-03T12:36:37.043Z,-59
2022-09-03T12:39:12.724Z,-61
2022-09-03T12:41:57.963Z,-59
2022-09-03T12:44:30.003Z,-59
2022-09-03T12:50:09.212Z,-60
2022-09-03T12:52:42.840Z,-60
2022-09-03T12:55:27.872Z,-59
2022-09-03T12:58:11.390Z,-59
2022-09-03T13:00:49.694Z,-60
2022-09-03T13:03:23.127Z,-59
2022-09-03T13:05:58.362Z,-60
2022-09-03T13:08:32.397Z,-60
2022-09-03T13:11:04.889Z,-59
2022-09-03T13:13:37.010Z,-61
2022-09-03T13:16:33.572Z,-59
2022-09-03T13:19:14.942Z,-59
2022-09-03T13:21:57.359Z,-59
2022-09-03T13:25:00.189Z,-60
2022-09-03T13:27:38.669Z,-60
2022-09-03T13:30:12.073Z,-62
2022-09-03T13:32:56.609Z,-59
2022-09-03T13:35:36.592Z,-59
2022-09-03T13:38:20.086Z,-60
2022-09-03T13:40:57.025Z,-60
2022-09-03T13:43:35.909Z,-60
2022-09-03T13:46:09.340Z,-60
2022-09-03T13:49:14.978Z,-60
2022-09-03T13:51:52.693Z,-60
2022-09-03T13:54:48.204Z,-59
2022-09-03T13:57:33.834Z,-59
2022-09-03T14:00:07.914Z,-59
2022-09-03T14:02:53.555Z,-61
2022-09-03T14:05:42.510Z,-59
2022-09-03T14:08:23.937Z,-58
2022-09-03T14:11:08.470Z,-60
2022-09-03T14:13:55.784Z,-60
2022-09-03T14:16:37.438Z,-61
2022-09-03T14:19:16.311Z,-60
2022-09-03T14:21:54.414Z,-61
2022-09-03T14:24:30.270Z,-60
2022-09-03T14:27:02.364Z,-60
2022-09-03T14:29:34.926Z,-60
2022-09-03T14:32:30.139Z,-59
2022-09-03T14:35:24.672Z,-60
2022-09-03T14:38:28.096Z,-60
2022-09-03T14:41:07.855Z,-60
2022-09-03T14:44:11.708Z,-60
2022-09-03T14:46:58.509Z,-59
2022-09-03T14:50:04.544Z,-60
2022-09-03T14:53:15.472Z,-59
2022-09-03T14:56:18.680Z,-60
2022-09-03T14:59:14.505Z,-59
2022-09-03T15:01:49.048Z,-60
2022-09-03T15:04:58.952Z,-60
2022-09-03T15:07:37.808Z,-59
2022-09-03T15:10:22.860Z,-60
2022-09-03T15:12:56.089Z,-59
2022-09-03T15:15:34.901Z,-59
2022-09-03T15:18:18.643Z,-58
2022-09-03T15:20:53.096Z,-58
2022-09-03T15:23:32.594Z,-60
2022-09-03T15:26:33.388Z,-60
2022-09-03T15:29:37.328Z,-60
2022-09-03T15:32:19.792Z,-59
2022-09-03T15:35:05.567Z,-60
2022-09-03T15:37:44.707Z,-60
2022-09-03T15:40:29.824Z,-60
2022-09-03T15:43:08.329Z,-61
2022-09-03T15:45:51.011Z,-59
2022-09-03T15:48:31.640Z,-59
2022-09-03T15:51:14.337Z,-59
2022-09-03T15:53:53.278Z,-59
2022-09-03T15:56:30.040Z,-59
2022-09-03T15:59:11.654Z,-60
2022-09-03T16:01:51.096Z,-60
2022-09-03T16:04:37.086Z,-60
2022-09-03T16:07:18.503Z,-58
2022-09-03T16:10:23.858Z,-61
2022-09-03T16:13:04.551Z,-59
2022-09-03T16:15:41.336Z,-61
2022-09-03T16:18:24.169Z,-59
2022-09-03T16:21:02.594Z,-61
2022-09-03T16:23:42.401Z,-60
2022-09-03T16:26:19.526Z,-60
2022-09-03T16:28:54.305Z,-59
2022-09-03T16:31:44.578Z,-61
2022-09-03T16:34:26.392Z,-58
2022-09-03T16:37:11.136Z,-60
2022-09-03T16:39:54.981Z,-60
2022-09-03T16:42:35.808Z,-59
2022-09-03T16:45:22.382Z,-60
2022-09-03T16:48:21.219Z,-58
2022-09-03T16:51:08.413Z,-59
2022-09-03T16:54:04.549Z,-61
2022-09-03T16:56:55.383Z,-60
2022-09-03T16:59:54.429Z,-60
2022-09-03T17:02:49.250Z,-60
2022-09-03T17:06:32.159Z,-60
2022-09-03T17:09:20.007Z,-61
2022-09-03T17:12:05.178Z,-60
2022-09-03T17:15:06.081Z,-59
2022-09-03T17:17:59.438Z,-61
2022-09-03T17:20:49.712Z,-60
2022-09-03T17:23:53.046Z,-60
2022-09-03T17:26:34.018Z,-61
2022-09-03T17:29:19.660Z,-59
2022-09-03T17:31:57.186Z,-60
2022-09-03T17:34:51.168Z,-60
2022-09-03T17:37:36.084Z,-60
2022-09-03T17:40:28.865Z,-61
2022-09-03T17:43:11.021Z,-60
2022-09-03T17:45:52.955Z,-60
2022-09-03T17:48:52.256Z,-60
2022-09-03T17:51:36.062Z,-60
2022-09-03T17:54:14.305Z,-60
2022-09-03T17:56:57.508Z,-60
2022-09-03T17:59:44.223Z,-60
2022-09-03T18:02:30.124Z,-60
2022-09-03T18:05:05.634Z,-59
2022-09-03T18:07:44.966Z,-59
2022-09-03T18:10:28.359Z,-59
2022-09-03T18:13:13.652Z,-58
2022-09-03T18:15:50.589Z,-59
2022-09-03T18:18:28.437Z,-60
2022-09-03T18:21:29.277Z,-60
2022-09-03T18:24:34.749Z,-60
2022-09-03T18:27:28.988Z,-59
2022-09-03T18:30:23.299Z,-60
2022-09-03T18:33:09.261Z,-59
2022-09-03T18:35:55.553Z,-61
2022-09-03T18:38:46.257Z,-61
2022-09-03T18:42:05.327Z,-60
2022-09-03T18:45:22.095Z,-60
2022-09-03T18:48:26.284Z,-60
2022-09-03T18:51:23.592Z,-60
2022-09-03T18:54:26.807Z,-61
2022-09-03T18:57:12.923Z,-60
2022-09-03T19:00:23.303Z,-61
2022-09-03T19:03:38.551Z,-60
2022-09-03T19:06:39.704Z,-61
2022-09-03T19:09:39.493Z,-61
2022-09-03T19:12:50.116Z,-60
2022-09-03T19:15:50.110Z,-59
2022-09-03T19:19:10.769Z,-61
2022-09-03T19:22:06.430Z,-60
2022-09-03T19:24:51.897Z,-59
2022-09-03T19:27:58.567Z,-60
2022-09-03T19:31:00.623Z,-60
2022-09-03T19:34:02.138Z,-60
2022-09-03T19:37:02.605Z,-62
2022-09-03T19:40:13.696Z,-62
2022-09-03T19:43:16.425Z,-61
2022-09-03T19:46:20.816Z,-60
2022-09-03T19:49:21.590Z,-61
2022-09-03T19:52:20.865Z,-61
2022-09-03T19:55:12.870Z,-60
2022-09-03T19:58:02.087Z,-60
2022-09-03T20:00:50.012Z,-60
2022-09-03T20:03:35.891Z,-61
2022-09-03T20:06:26.095Z,-61
2022-09-03T20:09:18.322Z,-61
2022-09-03T20:11:49.002Z,-59
2022-09-03T20:14:19.811Z,-60
2022-09-03T20:17:14.356Z,-59
2022-09-03T20:20:10.863Z,-62
2022-09-03T20:22:51.932Z,-60
2022-09-03T20:25:48.921Z,-60
2022-09-03T20:28:41.833Z,-60
2022-09-03T20:31:23.283Z,-60
2022-09-03T20:34:15.332Z,-61
2022-09-03T20:36:56.843Z,-60
2022-09-03T20:39:50.264Z,-59
2022-09-03T20:42:47.601Z,-61
2022-09-03T20:45:23.808Z,-61
2022-09-03T20:48:23.395Z,-60
2022-09-03T20:51:02.138Z,-61
2022-09-03T20:54:13.622Z,-60
2022-09-03T20:57:06.627Z,-60
2022-09-03T20:59:59.310Z,-60
2022-09-03T21:02:48.512Z,-60
2022-09-03T21:05:26.521Z,-61
2022-09-03T21:08:11.194Z,-61
2022-09-03T21:10:51.401Z,-60
2022-09-03T21:13:38.346Z,-61
2022-09-03T21:16:24.328Z,-60
2022-09-03T21:19:06.542Z,-61
2022-09-03T21:21:49.036Z,-60
2022-09-03T21:24:23.163Z,-61
2022-09-03T21:27:04.857Z,-61
2022-09-03T21:29:44.382Z,-60
2022-09-03T21:32:21.244Z,-60
2022-09-03T21:35:03.699Z,-60
2022-09-03T21:37:38.107Z,-61
2022-09-03T21:40:13.428Z,-59
2022-09-03T21:42:59.730Z,-60
2022-09-03T21:45:36.527Z,-62
2022-09-03T21:48:11.172Z,-60
2022-09-03T21:50:54.976Z,-60
2022-09-03T21:53:33.477Z,-62
2022-09-03T21:56:35.415Z,-60
2022-09-03T21:59:19.832Z,-60
2022-09-03T22:02:07.824Z,-60
2022-09-03T22:04:36.043Z,-62
2022-09-03T22:07:18.067Z,-60
2022-09-03T22:09:59.556Z,-61
2022-09-03T22:12:39.055Z,-60
2022-09-03T22:15:13.145Z,-61
2022-09-03T22:17:54.397Z,-61
2022-09-03T22:20:23.152Z,-60
2022-09-03T22:22:57.474Z,-60
2022-09-03T22:25:41.376Z,-60
2022-09-03T22:28:20.176Z,-60
2022-09-03T22:31:00.348Z,-61
2022-09-03T22:33:40.954Z,-60
2022-09-03T22:36:16.044Z,-59
2022-09-03T22:39:23.251Z,-61
2022-09-03T22:42:18.944Z,-60
2022-09-03T22:45:16.932Z,-61
2022-09-03T22:48:03.286Z,-60
2022-09-03T22:50:48.566Z,-60
2022-09-03T22:53:31.482Z,-61
2022-09-03T22:56:08.140Z,-60
2022-09-03T22:58:45.236Z,-61
2022-09-03T23:01:21.317Z,-60
2022-09-03T23:03:58.482Z,-58
2022-09-03T23:06:33.704Z,-59
2022-09-03T23:09:07.142Z,-60
2022-09-03T23:11:43.791Z,-60
2022-09-03T23:14:16.916Z,-59
2022-09-03T23:16:52.731Z,-61
2022-09-03T23:19:38.808Z,-60
2022-09-03T23:22:16.403Z,-61
2022-09-03T23:24:50.946Z,-61
2022-09-03T23:27:28.154Z,-60
2022-09-03T23:30:01.322Z,-59
2022-09-03T23:32:33.247Z,-62
2022-09-03T23:35:04.360Z,-60
2022-09-03T23:37:53.824Z,-60
2022-09-03T23:40:47.442Z,-59
2022-09-03T23:44:02.201Z,-61
2022-09-03T23:46:39.407Z,-59
2022-09-03T23:49:33.668Z,-60
2022-09-03T23:52:33.877Z,-60
2022-09-03T23:55:19.959Z,-60
2022-09-03T23:57:58.701Z,-59
